Sunday, April 22, 2018, 5:50 PM EDT
Back to Local

KGED, Georgetown Sussex Co Airport

Location: Georgetown, DE, United States Lat: 38.683
Local Time: 5:50 PM EDT (21:50 GMT) Lon: -75.367
Time Zone: US/Eastern Elev: 52 ft

Show me the last for .
Show Coded

Time T Td Feel RH Dir Speed Gust Alt SLP Vis Weather Sky Remarks
2018-04-22 16:54 59 31 - 34 150° 10 - 30.38 30.38 10 CLR None
2018-04-22 15:54 60 30 - 31 130° 13 - 30.39 30.38 10 CLR None
2018-04-22 14:54 62 30 - 29 110° 8 - 30.39 30.39 10 CLR None
2018-04-22 13:54 62 30 - 29 Variable 5 - 30.40 30.40 10 CLR 1-hr Precip Total: Trace
6-hr Precip Total (2pm): 0.00"
6-hr Min Temp (2pm): 52.0°F
6-hr Max Temp (2pm): 63.0°F
2018-04-22 12:54 62 29 - 28 100° 12 - 30.41 30.41 10 CLR None
2018-04-22 11:54 62 31 - 30 50° 7 - 30.42 30.42 10 CLR None
2018-04-22 10:54 60 32 - 34 100° 6 - 30.44 30.43 10 CLR None
2018-04-22 09:54 59 37 - 43 40° 8 - 30.44 30.43 10 CLR None
2018-04-22 08:54 56 40 - 54 - Calm - 30.43 30.43 10 CLR None
2018-04-22 07:54 52 42 - 68 - Calm - 30.43 30.43 10 CLR 6-hr Min Temp (8am): 43.0°F
6-hr Max Temp (8am): 52.0°F
2018-04-22 06:54 46 41 - 82 - Calm - 30.42 30.42 10 FEW120 None
2018-04-22 05:54 46 42 - 85 - Calm - 30.42 30.42 10 CLR None
2018-04-22 04:54 44 40 - 85 - Calm - 30.39 30.39 10 CLR None
2018-04-22 03:54 44 39 - 82 - Calm - 30.38 30.38 10 FEW120 None
2018-04-22 02:54 44 38 - 78 - Calm - 30.38 30.38 10 CLR None
2018-04-22 01:54 45 38 - 76 - Calm - 30.39 30.39 10 CLR 6-hr Min Temp (2am): 44.1°F
6-hr Max Temp (2am): 55.9°F
2018-04-22 00:54 47 37 46 68 240° 3 - 30.39 30.39 10 CLR 24-hr Min Temp (1am): 33.1°F
24-hr Max Temp (1am): 61.0°F
2018-04-21 23:54 47 39 45 73 220° 5 - 30.39 30.39 10 CLR None
2018-04-21 22:54 47 39 45 73 200° 5 - 30.39 30.39 10 CLR None
2018-04-21 21:54 48 39 47 70 190° 3 - 30.39 30.39 10 CLR None
2018-04-21 20:54 48 37 - 65 - Calm - 30.38 30.38 10 CLR None
2018-04-21 19:54 56 27 - 32 - Calm - 30.37 30.37 10 CLR 6-hr Min Temp (8pm): 55.9°F
6-hr Max Temp (8pm): 61.0°F
2018-04-21 18:54 58 24 - 26 300° 5 - 30.35 30.35 10 CLR None
2018-04-21 17:54 59 23 - 24 280° 9 - 30.35 30.35 10 CLR None

Support USWX by starting your Amazon purchase here.